Time;durP1;ratioP1;P1;durP2;ratioP2;P2;SDS_P1;SDS_P2;PMS_P1;PMS_P2;Temp;Humidity;BMP_temperature;BMP_pressure;BME280_temperature;BME280_humidity;BME280_pressure;Samples;Min_cycle;Max_cycle;Signal;HPM_P1;HPM_P2
2023/04/28 00:00:36;;;;;;;6.10;2.90;;;;;;;13.14;50.02;101331.91;106719;1269;25124;-48
2023/04/28 00:03:03;;;;;;;5.00;2.10;;;;;;;13.15;49.83;101331.04;106715;1269;24231;-48
2023/04/28 00:05:31;;;;;;;5.90;1.90;;;;;;;13.14;49.90;101332.60;106715;1269;22526;-48
2023/04/28 00:07:58;;;;;;;2.30;1.80;;;;;;;13.14;49.53;101332.29;106813;1269;25537;-48
2023/04/28 00:10:25;;;;;;;5.60;1.80;;;;;;;13.12;49.24;101330.58;106874;1271;24248;-48
2023/04/28 00:12:52;;;;;;;2.60;1.80;;;;;;;13.11;49.48;101335.31;106873;1272;24365;-47
2023/04/28 00:15:19;;;;;;;1.80;1.40;;;;;;;13.10;49.65;101330.79;106901;1268;24261;-48
2023/04/28 00:17:47;;;;;;;3.80;1.70;;;;;;;13.09;49.95;101330.10;106930;1272;25490;-48
2023/04/28 00:20:14;;;;;;;5.40;1.80;;;;;;;13.09;49.82;101333.42;106725;1276;22580;-47
2023/04/28 00:22:41;;;;;;;4.10;2.00;;;;;;;13.08;49.66;101327.36;106612;1274;24278;-47
2023/04/28 00:25:09;;;;;;;4.00;1.90;;;;;;;13.08;49.39;101325.27;106773;1269;25480;-48
2023/04/28 00:27:36;;;;;;;4.10;1.50;;;;;;;13.06;49.49;101326.34;106640;1271;22526;-48
2023/04/28 00:30:04;;;;;;;3.40;1.40;;;;;;;13.05;49.55;101330.89;106721;1274;22542;-49
2023/04/28 00:32:31;;;;;;;4.90;1.80;;;;;;;13.04;49.73;101335.95;106919;1272;22820;-49
2023/04/28 00:34:58;;;;;;;5.90;1.90;;;;;;;13.04;49.77;101332.30;106851;1269;25237;-48
2023/04/28 00:37:25;;;;;;;2.30;1.50;;;;;;;13.05;49.88;101335.08;106035;1271;1003655;-48
2023/04/28 00:39:55;;;;;;;4.90;1.70;;;;;;;13.04;50.16;101334.55;106801;1269;22523;-49
2023/04/28 00:42:23;;;;;;;3.00;1.30;;;;;;;13.03;50.08;101331.95;106762;1268;22536;-49
2023/04/28 00:44:50;;;;;;;3.30;1.40;;;;;;;13.02;50.16;101327.27;106906;1269;22778;-49
2023/04/28 00:47:18;;;;;;;2.90;1.30;;;;;;;13.02;49.74;101329.18;106744;1276;24235;-49
2023/04/28 00:49:46;;;;;;;4.60;1.50;;;;;;;13.02;50.03;101336.50;106835;1269;22534;-48
2023/04/28 00:52:13;;;;;;;3.50;1.60;;;;;;;13.03;50.32;101337.70;106869;1271;24251;-49
2023/04/28 00:54:41;;;;;;;3.90;1.50;;;;;;;13.03;50.09;101333.00;106773;1269;22563;-48
2023/04/28 00:57:09;;;;;;;3.80;1.60;;;;;;;13.02;50.46;101335.61;106803;1268;25488;-47
2023/04/28 00:59:37;;;;;;;3.70;1.40;;;;;;;13.00;50.03;101332.88;106598;1274;22567;-49
2023/04/28 01:02:05;;;;;;;3.50;1.60;;;;;;;12.98;49.80;101331.00;106650;1271;24397;-49
2023/04/28 01:04:32;;;;;;;3.40;1.40;;;;;;;12.96;49.69;101325.65;106619;1271;22559;-49
2023/04/28 01:07:00;;;;;;;4.80;1.90;;;;;;;12.95;49.80;101327.95;106580;1271;24126;-49
2023/04/28 01:09:27;;;;;;;2.80;1.30;;;;;;;12.94;49.92;101320.64;106608;1271;22649;-48
2023/04/28 01:11:57;;;;;;;5.50;1.80;;;;;;;12.93;50.03;101318.42;106612;1268;24262;-49
2023/04/28 01:14:38;;;;;;;4.30;1.60;;;;;;;12.93;50.40;101320.17;106328;1268;376318;-50
2023/04/28 01:17:06;;;;;;;2.60;1.60;;;;;;;12.91;50.01;101317.93;106404;1269;25220;-47
2023/04/28 01:19:33;;;;;;;4.20;1.80;;;;;;;12.89;50.37;101315.02;105928;1269;1002859;-49
2023/04/28 01:22:01;;;;;;;3.50;1.90;;;;;;;12.86;50.28;101307.95;106721;1269;24394;-48
2023/04/28 01:24:28;;;;;;;2.10;1.50;;;;;;;12.84;50.24;101310.80;106679;1270;22520;-49
2023/04/28 01:26:57;;;;;;;4.60;1.90;;;;;;;12.82;50.11;101305.95;106916;1271;25490;-49
2023/04/28 01:29:24;;;;;;;3.20;1.40;;;;;;;12.81;49.99;101304.23;106687;1274;22570;-49
2023/04/28 01:31:52;;;;;;;3.20;1.60;;;;;;;12.79;49.63;101307.23;106821;1271;25476;-49
2023/04/28 01:34:19;;;;;;;3.40;1.50;;;;;;;12.77;50.29;101307.80;106481;1276;22551;-47
2023/04/28 01:36:46;;;;;;;4.10;1.50;;;;;;;12.76;50.59;101306.43;106661;1277;22527;-48
2023/04/28 01:39:13;;;;;;;3.50;1.70;;;;;;;12.76;50.30;101306.09;106765;1270;22558;-50
2023/04/28 01:41:41;;;;;;;3.60;1.40;;;;;;;12.74;50.61;101304.23;106626;1272;22549;-47
2023/04/28 01:44:08;;;;;;;4.70;1.60;;;;;;;12.73;50.32;101310.88;106705;1271;22763;-49
2023/04/28 01:46:35;;;;;;;2.70;1.50;;;;;;;12.71;50.13;101308.83;106723;1272;25354;-49
2023/04/28 01:49:03;;;;;;;4.40;2.30;;;;;;;12.69;50.19;101314.08;106725;1271;22526;-48
2023/04/28 01:51:30;;;;;;;2.90;1.50;;;;;;;12.69;50.70;101310.95;106516;1271;24281;-48
2023/04/28 01:53:57;;;;;;;5.00;1.50;;;;;;;12.73;50.44;101312.09;106749;1270;22521;-48
2023/04/28 01:56:24;;;;;;;5.30;1.80;;;;;;;12.73;50.52;101309.13;106105;1253;1002953;-48
2023/04/28 01:58:53;;;;;;;3.00;1.50;;;;;;;12.72;50.50;101312.61;106799;1269;25590;-49
2023/04/28 02:01:20;;;;;;;4.50;1.80;;;;;;;12.72;50.64;101309.48;106818;1270;25269;-49
2023/04/28 02:03:47;;;;;;;3.00;1.30;;;;;;;12.74;50.94;101313.98;106746;1269;23899;-48
2023/04/28 02:06:15;;;;;;;4.40;1.70;;;;;;;12.73;50.72;101316.24;106751;1269;25642;-49
2023/04/28 02:08:42;;;;;;;3.10;1.30;;;;;;;12.72;50.59;101314.37;106784;1269;23003;-48
2023/04/28 02:11:11;;;;;;;3.60;1.70;;;;;;;12.72;50.78;101316.81;106783;1270;24393;-48
2023/04/28 02:13:38;;;;;;;3.00;1.60;;;;;;;12.70;50.66;101321.37;106141;1268;1003408;-48
2023/04/28 02:16:06;;;;;;;3.00;1.50;;;;;;;12.69;50.73;101316.68;106756;1267;22520;-48
2023/04/28 02:18:35;;;;;;;3.60;1.80;;;;;;;12.69;50.71;101320.02;106811;1271;24191;-49
2023/04/28 02:21:12;;;;;;;3.70;1.80;;;;;;;12.68;50.78;101324.90;106827;1270;22523;-49
2023/04/28 02:23:39;;;;;;;2.80;1.90;;;;;;;12.65;50.51;101326.52;106496;1274;24274;-49
2023/04/28 02:26:07;;;;;;;5.30;1.60;;;;;;;12.64;50.44;101326.71;106094;1271;1002569;-48
2023/04/28 02:28:35;;;;;;;3.60;1.70;;;;;;;12.63;50.55;101324.14;106850;1261;24281;-48
2023/04/28 02:31:05;;;;;;;4.10;1.80;;;;;;;12.63;50.39;101333.18;106887;1269;24468;-49
2023/04/28 02:33:32;;;;;;;5.50;1.60;;;;;;;12.62;50.73;101325.89;106731;1272;25471;-48
2023/04/28 02:36:01;;;;;;;6.10;1.80;;;;;;;12.63;50.59;101337.36;106761;1276;24364;-48
2023/04/28 02:38:28;;;;;;;2.60;1.50;;;;;;;12.63;50.44;101338.41;106794;1269;23897;-48
2023/04/28 02:40:59;;;;;;;4.00;1.70;;;;;;;12.61;50.58;101346.44;106597;1273;22527;-47
2023/04/28 02:43:27;;;;;;;4.10;2.00;;;;;;;12.58;50.40;101348.25;106761;1271;22539;-49
2023/04/28 02:45:54;;;;;;;3.60;1.90;;;;;;;12.55;50.71;101345.88;106766;1269;22539;-48
2023/04/28 02:48:23;;;;;;;4.10;1.80;;;;;;;12.55;51.15;101350.08;106703;1270;25333;-49
2023/04/28 02:50:52;;;;;;;4.60;1.30;;;;;;;12.55;51.51;101352.31;106751;1269;22781;-49
2023/04/28 02:53:19;;;;;;;3.90;1.80;;;;;;;12.56;51.30;101350.91;106679;1269;22532;-48
2023/04/28 02:55:47;;;;;;;3.90;1.80;;;;;;;12.56;51.47;101352.65;106690;1273;22960;-49
2023/04/28 02:58:16;;;;;;;5.40;1.70;;;;;;;12.56;51.29;101353.01;106598;1269;25580;-50
2023/04/28 03:00:45;;;;;;;3.60;1.90;;;;;;;12.58;51.54;101352.09;106518;1271;22537;-49
2023/04/28 03:03:12;;;;;;;3.30;1.80;;;;;;;12.59;51.58;101349.27;106618;1265;24248;-47
2023/04/28 03:05:40;;;;;;;4.40;1.50;;;;;;;12.59;51.38;101352.74;105722;1276;1015723;-48
2023/04/28 03:08:07;;;;;;;4.50;1.80;;;;;;;12.59;51.63;101349.29;106551;1271;25383;-49
2023/04/28 03:10:34;;;;;;;3.50;1.80;;;;;;;12.59;51.27;101352.59;106597;1271;25397;-49
2023/04/28 03:13:01;;;;;;;5.10;2.20;;;;;;;12.57;51.36;101356.12;106038;1271;1003090;-48
2023/04/28 03:15:29;;;;;;;2.50;1.60;;;;;;;12.55;51.44;101358.23;106757;1271;25516;-49
2023/04/28 03:17:56;;;;;;;4.70;1.40;;;;;;;12.55;51.49;101363.46;106884;1269;22570;-48
2023/04/28 03:20:24;;;;;;;3.10;1.60;;;;;;;12.55;51.51;101364.86;106783;1275;22676;-48
2023/04/28 03:22:51;;;;;;;4.90;2.30;;;;;;;12.55;51.61;101369.55;106713;1274;24273;-47
2023/04/28 03:25:18;;;;;;;6.40;2.00;;;;;;;12.55;51.64;101370.60;106844;1272;25557;-48
2023/04/28 03:27:50;;;;;;;5.80;2.20;;;;;;;12.56;51.70;101369.70;106820;1261;25631;-48
2023/04/28 03:30:17;;;;;;;5.10;1.90;;;;;;;12.57;51.76;101373.86;106913;1269;26502;-48
2023/04/28 03:32:45;;;;;;;2.60;1.30;;;;;;;12.56;51.89;101378.23;106850;1262;24340;-48
2023/04/28 03:35:12;;;;;;;2.80;1.80;;;;;;;12.55;51.71;101381.90;106785;1268;25404;-48
2023/04/28 03:37:40;;;;;;;5.60;2.40;;;;;;;12.56;51.77;101384.67;106868;1268;24229;-48
2023/04/28 03:40:08;;;;;;;3.40;1.50;;;;;;;12.57;51.79;101389.17;106769;1269;22527;-49
2023/04/28 03:42:53;;;;;;;7.30;2.40;;;;;;;12.58;51.86;101383.77;106747;1268;24351;-48
2023/04/28 03:45:30;;;;;;;4.30;2.00;;;;;;;12.56;52.10;101387.45;106052;1268;1015356;-48
2023/04/28 03:47:58;;;;;;;6.00;2.20;;;;;;;12.54;52.32;101383.33;106792;1275;22526;-48
2023/04/28 03:50:25;;;;;;;3.10;1.40;;;;;;;12.54;52.41;101382.11;106860;1269;24443;-48
2023/04/28 03:52:53;;;;;;;5.20;1.80;;;;;;;12.54;52.35;101381.59;107083;1268;26166;-48
2023/04/28 03:55:20;;;;;;;3.30;1.60;;;;;;;12.54;52.32;101388.54;106861;1253;24379;-49
2023/04/28 03:57:47;;;;;;;5.40;2.20;;;;;;;12.54;52.44;101388.02;106732;1264;22569;-48
2023/04/28 04:00:17;;;;;;;5.10;1.80;;;;;;;12.53;51.93;101389.61;106981;1269;24225;-48
2023/04/28 04:02:44;;;;;;;2.20;1.60;;;;;;;12.53;52.06;101385.95;106862;1273;25598;-48
2023/04/28 04:05:12;;;;;;;4.10;1.60;;;;;;;12.52;52.01;101384.75;106847;1269;22554;-48
2023/04/28 04:07:40;;;;;;;3.60;1.70;;;;;;;12.52;52.14;101385.28;106908;1268;25496;-48
2023/04/28 04:10:08;;;;;;;2.10;1.70;;;;;;;12.54;52.46;101388.19;106799;1271;22525;-48
2023/04/28 04:12:35;;;;;;;3.10;1.70;;;;;;;12.56;53.02;101388.67;106841;1272;22532;-48
2023/04/28 04:15:03;;;;;;;5.50;1.90;;;;;;;12.58;52.98;101386.55;106980;1269;22523;-48
2023/04/28 04:17:31;;;;;;;3.30;1.60;;;;;;;12.59;52.81;101385.64;106206;1269;1002947;-47
2023/04/28 04:19:58;;;;;;;3.50;1.60;;;;;;;12.60;52.43;101388.77;106886;1275;22612;-49
2023/04/28 04:22:25;;;;;;;4.70;2.30;;;;;;;12.60;52.65;101387.02;106927;1270;22820;-49
2023/04/28 04:24:52;;;;;;;4.10;1.60;;;;;;;12.62;53.14;101388.20;106778;1268;22624;-48
2023/04/28 04:27:21;;;;;;;3.90;2.10;;;;;;;12.63;53.14;101392.86;107008;1268;25509;-48
2023/04/28 04:29:48;;;;;;;4.70;2.00;;;;;;;12.65;53.21;101391.09;106881;1270;22739;-49
2023/04/28 04:32:15;;;;;;;5.10;1.70;;;;;;;12.67;52.86;101395.77;106998;1268;22538;-49
2023/04/28 04:34:42;;;;;;;6.30;2.80;;;;;;;12.70;52.51;101397.79;106754;1269;24362;-48
2023/04/28 04:37:10;;;;;;;3.80;1.40;;;;;;;12.69;52.68;101396.77;106082;1273;1002984;-49
2023/04/28 04:39:42;;;;;;;6.40;1.80;;;;;;;12.69;52.78;101398.86;107074;1270;22527;-49
2023/04/28 04:42:09;;;;;;;1.80;1.40;;;;;;;12.69;52.70;101398.86;106757;1275;22536;-49
2023/04/28 04:45:10;;;;;;;3.30;1.50;;;;;;;12.70;52.98;101398.66;106707;1269;22527;-49
2023/04/28 04:47:37;;;;;;;3.40;1.60;;;;;;;12.72;53.02;101397.76;105809;1275;1002873;-49
2023/04/28 04:50:05;;;;;;;3.00;1.80;;;;;;;12.73;53.02;101394.59;106681;1273;24198;-49
2023/04/28 04:52:32;;;;;;;3.90;1.40;;;;;;;12.77;53.03;101396.96;106664;1270;22525;-49
2023/04/28 04:55:00;;;;;;;3.50;1.80;;;;;;;12.76;52.72;101397.84;106652;1272;25568;-48
2023/04/28 04:57:27;;;;;;;4.80;2.40;;;;;;;12.77;52.18;101401.64;106381;1269;25533;-48
2023/04/28 05:00:18;;;;;;;5.30;1.80;;;;;;;12.78;52.28;101402.67;106825;1269;22773;-49
2023/04/28 05:02:45;;;;;;;3.50;1.90;;;;;;;12.82;52.29;101398.23;106721;1268;24230;-49
2023/04/28 05:05:13;;;;;;;2.80;1.60;;;;;;;12.80;52.55;101397.75;106848;1269;22569;-49
2023/04/28 05:08:11;;;;;;;5.10;1.80;;;;;;;12.82;52.46;101400.15;106634;1268;24361;-49
2023/04/28 05:10:39;;;;;;;3.20;2.00;;;;;;;12.84;52.45;101396.11;106966;1268;24227;-49
2023/04/28 05:13:07;;;;;;;3.40;1.70;;;;;;;12.82;52.29;101401.71;106969;1269;24212;-49
2023/04/28 05:15:34;;;;;;;6.40;1.60;;;;;;;12.82;52.27;101398.41;107007;1273;24398;-47
2023/04/28 05:18:25;;;;;;;5.20;1.90;;;;;;;12.82;52.38;101401.02;106740;1272;22526;-49
2023/04/28 05:20:52;;;;;;;3.80;1.60;;;;;;;12.84;52.35;101398.90;106667;1269;22768;-47
2023/04/28 05:23:19;;;;;;;2.50;1.50;;;;;;;12.85;51.93;101402.88;106912;1271;22528;-48
2023/04/28 05:25:46;;;;;;;3.50;1.90;;;;;;;12.85;52.11;101404.42;106898;1268;25343;-49
2023/04/28 05:28:14;;;;;;;2.90;1.70;;;;;;;12.86;51.82;101406.33;106615;1275;24370;-48
2023/04/28 05:30:43;;;;;;;1.90;1.40;;;;;;;12.85;51.68;101406.54;106993;1269;22552;-48
2023/04/28 05:33:11;;;;;;;3.40;1.90;;;;;;;12.84;51.63;101412.29;106893;1267;24249;-48
2023/04/28 05:35:39;;;;;;;3.80;1.70;;;;;;;12.84;51.94;101416.30;106897;1269;24262;-48
2023/04/28 05:38:07;;;;;;;2.80;1.70;;;;;;;12.85;51.91;101411.92;106952;1270;22998;-47
2023/04/28 05:40:34;;;;;;;6.60;1.60;;;;;;;12.87;51.65;101413.09;106720;1269;24462;-49
2023/04/28 05:43:01;;;;;;;2.60;1.80;;;;;;;12.89;51.95;101412.88;106819;1268;22522;-49
2023/04/28 05:45:28;;;;;;;4.10;1.60;;;;;;;12.91;51.76;101414.76;106608;1269;22519;-49
2023/04/28 05:47:56;;;;;;;4.20;1.70;;;;;;;12.92;51.85;101409.34;106540;1271;24364;-47
2023/04/28 05:50:23;;;;;;;3.90;1.90;;;;;;;12.94;51.78;101414.70;106619;1272;23895;-47
2023/04/28 05:52:51;;;;;;;2.10;1.40;;;;;;;12.96;51.60;101413.45;106505;1271;23880;-48
2023/04/28 05:55:19;;;;;;;2.80;1.40;;;;;;;12.97;51.04;101410.28;106854;1272;24273;-48
2023/04/28 05:57:47;;;;;;;2.20;1.30;;;;;;;12.96;50.63;101406.83;106815;1269;22627;-48
2023/04/28 06:00:20;;;;;;;3.40;1.60;;;;;;;12.95;50.85;101405.79;106429;1263;25592;-48
2023/04/28 06:02:48;;;;;;;4.10;1.60;;;;;;;12.95;51.15;101407.88;106692;1272;24151;-48
2023/04/28 06:05:15;;;;;;;4.50;1.60;;;;;;;12.97;50.78;101405.92;106646;1270;22524;-48
2023/04/28 06:07:43;;;;;;;2.50;1.50;;;;;;;12.98;51.07;101408.51;106669;1269;24183;-48
2023/04/28 06:10:10;;;;;;;3.20;1.30;;;;;;;13.00;50.80;101413.89;106582;1269;22528;-48
2023/04/28 06:12:38;;;;;;;4.20;1.80;;;;;;;13.00;50.49;101409.51;106733;1269;25168;-48
2023/04/28 06:15:06;;;;;;;3.20;1.60;;;;;;;13.03;50.55;101419.38;106515;1268;22515;-48
2023/04/28 06:17:33;;;;;;;3.00;1.20;;;;;;;13.04;50.37;101416.06;106818;1267;25679;-48
2023/04/28 06:20:00;;;;;;;3.70;1.60;;;;;;;13.05;50.24;101415.35;106791;1253;25619;-48
2023/04/28 06:22:27;;;;;;;3.90;1.40;;;;;;;13.08;50.83;101420.53;106626;1271;25220;-48
2023/04/28 06:24:54;;;;;;;1.90;1.50;;;;;;;13.11;50.51;101419.96;106975;1269;22671;-48
2023/04/28 06:27:31;;;;;;;3.20;2.00;;;;;;;13.13;50.72;101420.78;106975;1269;24243;-49
2023/04/28 06:29:58;;;;;;;2.50;1.30;;;;;;;13.16;50.68;101421.77;106934;1270;22530;-48
2023/04/28 06:32:25;;;;;;;2.10;1.40;;;;;;;13.18;50.17;101427.64;106949;1270;22523;-48
2023/04/28 06:34:52;;;;;;;2.90;1.30;;;;;;;13.21;50.11;101427.76;106064;1273;1003984;-48
2023/04/28 06:37:22;;;;;;;2.60;1.50;;;;;;;13.23;50.06;101425.63;105797;1275;1003174;-48
2023/04/28 06:39:49;;;;;;;4.90;1.60;;;;;;;13.24;50.13;101421.60;106954;1269;22526;-48
2023/04/28 06:42:17;;;;;;;4.40;1.50;;;;;;;13.26;50.81;101420.83;106117;1268;1002936;-46
2023/04/28 06:44:52;;;;;;;4.10;1.60;;;;;;;13.31;50.58;101425.44;106803;1271;22531;-47
2023/04/28 06:47:19;;;;;;;5.90;1.90;;;;;;;13.34;50.32;101425.55;106738;1272;24383;-49
2023/04/28 06:49:49;;;;;;;3.10;1.50;;;;;;;13.37;50.27;101430.88;106988;1269;25478;-47
2023/04/28 06:52:16;;;;;;;2.40;1.60;;;;;;;13.40;49.49;101428.19;106960;1270;24203;-48
2023/04/28 06:54:43;;;;;;;3.30;1.30;;;;;;;13.42;49.44;101431.10;106791;1272;22534;-47
2023/04/28 06:57:10;;;;;;;3.50;1.40;;;;;;;13.44;49.50;101429.49;106198;1268;1002530;-48
2023/04/28 06:59:37;;;;;;;3.60;1.70;;;;;;;13.45;49.19;101428.42;106731;1269;22531;-48
2023/04/28 07:02:04;;;;;;;6.20;1.60;;;;;;;13.47;49.13;101424.19;106850;1269;25322;-49
2023/04/28 07:04:32;;;;;;;2.20;1.50;;;;;;;13.51;48.70;101425.99;106751;1268;26618;-48
2023/04/28 07:06:59;;;;;;;3.20;1.40;;;;;;;13.54;49.38;101431.18;106601;1269;22620;-48
2023/04/28 07:09:26;;;;;;;2.50;1.30;;;;;;;13.56;49.04;101430.61;106611;1269;22566;-49
2023/04/28 07:11:54;;;;;;;3.10;1.30;;;;;;;13.58;48.95;101433.86;106378;1269;22928;-48
2023/04/28 07:14:22;;;;;;;1.90;1.30;;;;;;;13.60;48.54;101433.30;106673;1275;22524;-48
2023/04/28 07:16:49;;;;;;;4.70;1.80;;;;;;;13.62;49.06;101431.52;106737;1269;22559;-47
2023/04/28 07:19:16;;;;;;;4.10;1.50;;;;;;;13.64;48.83;101429.00;106664;1269;22572;-48
2023/04/28 07:21:44;;;;;;;2.20;1.40;;;;;;;13.67;48.65;101432.26;106870;1269;24183;-48
2023/04/28 07:24:11;;;;;;;2.90;1.60;;;;;;;13.71;48.67;101433.55;106951;1269;22541;-47
2023/04/28 07:26:38;;;;;;;4.60;1.80;;;;;;;13.76;48.96;101434.14;106855;1272;22542;-47
2023/04/28 07:29:07;;;;;;;3.50;1.30;;;;;;;13.81;48.66;101436.61;106904;1269;22523;-49
2023/04/28 07:31:34;;;;;;;2.60;1.20;;;;;;;13.87;48.72;101436.99;106789;1269;24189;-49
2023/04/28 07:34:02;;;;;;;1.80;1.60;;;;;;;13.92;48.80;101437.56;106894;1274;22659;-48
2023/04/28 07:36:29;;;;;;;2.50;1.40;;;;;;;13.98;48.59;101441.44;106807;1253;24280;-49
2023/04/28 07:38:58;;;;;;;3.90;1.10;;;;;;;14.04;48.19;101440.41;106954;1269;23262;-48
2023/04/28 07:41:26;;;;;;;3.50;1.50;;;;;;;14.09;48.55;101436.27;106878;1267;24190;-49
2023/04/28 07:43:53;;;;;;;4.90;1.50;;;;;;;14.13;48.48;101436.86;106927;1269;24213;-49
2023/04/28 07:46:21;;;;;;;2.60;1.30;;;;;;;14.15;47.84;101435.77;106764;1270;24208;-48
2023/04/28 07:48:48;;;;;;;1.50;1.20;;;;;;;14.15;48.33;101431.94;106979;1269;22646;-48
2023/04/28 07:51:15;;;;;;;2.00;1.40;;;;;;;14.16;47.74;101434.33;106954;1269;24290;-49
2023/04/28 07:53:42;;;;;;;2.30;1.40;;;;;;;14.17;48.06;101435.38;106874;1269;24197;-48
2023/04/28 07:56:11;;;;;;;2.80;1.30;;;;;;;14.19;48.32;101431.83;106686;1269;24280;-48
2023/04/28 07:58:38;;;;;;;5.90;1.30;;;;;;;14.22;48.57;101426.69;106869;1273;25905;-47
2023/04/28 08:01:05;;;;;;;3.50;1.80;;;;;;;14.26;47.86;101423.98;106794;1275;24350;-47
2023/04/28 08:03:32;;;;;;;3.80;1.30;;;;;;;14.30;47.43;101419.87;106858;1269;22661;-48
2023/04/28 08:05:59;;;;;;;3.30;1.30;;;;;;;14.38;47.56;101423.67;106912;1269;22520;-49
2023/04/28 08:08:27;;;;;;;3.90;1.30;;;;;;;14.45;48.42;101419.12;106666;1271;22581;-49
2023/04/28 08:10:54;;;;;;;1.80;1.00;;;;;;;14.50;48.55;101421.77;106649;1273;22774;-48
2023/04/28 08:13:21;;;;;;;5.80;2.00;;;;;;;14.57;48.39;101416.69;106686;1272;24442;-47
2023/04/28 08:15:48;;;;;;;4.20;1.50;;;;;;;14.64;48.20;101413.70;106954;1271;24265;-47
2023/04/28 08:18:16;;;;;;;1.90;1.50;;;;;;;14.72;47.97;101414.37;106851;1273;22529;-47
2023/04/28 08:20:43;;;;;;;0.80;0.80;;;;;;;14.76;47.64;101416.52;107008;1269;22543;-49
2023/04/28 08:23:10;;;;;;;2.40;1.10;;;;;;;14.76;47.00;101410.58;106938;1269;22636;-48
2023/04/28 08:25:37;;;;;;;4.00;1.20;;;;;;;14.77;46.66;101410.89;106885;1271;22527;-49
2023/04/28 08:28:05;;;;;;;2.70;1.20;;;;;;;14.80;46.47;101409.41;106877;1269;22517;-48
2023/04/28 08:30:32;;;;;;;3.10;0.90;;;;;;;14.80;45.93;101411.67;106857;1274;24223;-47
2023/04/28 08:33:00;;;;;;;2.40;1.20;;;;;;;14.82;46.30;101414.09;107088;1270;22527;-47
2023/04/28 08:35:27;;;;;;;2.90;1.50;;;;;;;14.83;46.22;101407.77;106958;1271;22581;-47
2023/04/28 08:37:54;;;;;;;2.20;1.20;;;;;;;14.86;46.35;101409.25;106825;1275;22630;-47
2023/04/28 08:40:23;;;;;;;2.50;1.10;;;;;;;14.87;45.99;101401.87;107021;1271;24257;-48
2023/04/28 08:42:50;;;;;;;3.30;1.30;;;;;;;14.88;45.66;101403.60;106870;1253;26158;-48
2023/04/28 08:45:17;;;;;;;2.00;1.00;;;;;;;14.86;45.35;101404.34;106879;1269;23064;-48
2023/04/28 08:47:45;;;;;;;4.00;1.30;;;;;;;14.85;45.44;101401.58;106879;1270;24290;-48
2023/04/28 08:50:12;;;;;;;2.80;1.20;;;;;;;14.85;45.19;101404.04;106866;1265;25567;-48
2023/04/28 08:52:41;;;;;;;1.30;0.80;;;;;;;14.86;44.91;101405.58;106821;1273;24469;-47
2023/04/28 08:55:10;;;;;;;3.40;1.30;;;;;;;14.87;44.83;101402.91;106951;1269;22641;-48
2023/04/28 08:57:48;;;;;;;5.10;1.30;;;;;;;14.89;44.97;101407.38;106976;1270;22534;-47
2023/04/28 09:00:16;;;;;;;1.90;1.10;;;;;;;14.89;45.28;101403.04;106958;1269;23005;-47
2023/04/28 09:02:43;;;;;;;5.10;1.30;;;;;;;14.90;45.06;101405.09;106946;1271;24264;-48
2023/04/28 09:05:11;;;;;;;2.70;1.00;;;;;;;14.89;44.84;101401.64;106238;1270;1003352;-48
2023/04/28 09:07:39;;;;;;;3.20;1.20;;;;;;;14.88;44.93;101402.02;106819;1272;22926;-49
2023/04/28 09:10:17;;;;;;;2.20;1.40;;;;;;;14.87;45.04;101405.71;106810;1269;22599;-48
2023/04/28 09:12:45;;;;;;;3.70;1.40;;;;;;;14.89;45.35;101401.80;106874;1269;22525;-48
2023/04/28 09:15:33;;;;;;;3.40;1.90;;;;;;;14.92;45.55;101402.25;106853;1259;22536;-48
2023/04/28 09:18:05;;;;;;;2.30;1.40;;;;;;;14.93;46.04;101401.52;106855;1268;22520;-47
2023/04/28 09:20:33;;;;;;;3.50;1.20;;;;;;;14.95;46.88;101400.42;106758;1270;23588;-49
2023/04/28 09:23:21;;;;;;;2.60;1.30;;;;;;;14.97;46.22;101397.38;106848;1268;24647;-48
2023/04/28 09:25:56;;;;;;;2.70;1.60;;;;;;;14.98;45.93;101398.59;106528;1271;23068;-48
2023/04/28 09:28:23;;;;;;;4.00;1.00;;;;;;;14.99;45.55;101400.80;106718;1272;22519;-48
2023/04/28 09:30:50;;;;;;;2.50;1.30;;;;;;;15.03;45.72;101399.66;106952;1275;24836;-49
2023/04/28 09:33:17;;;;;;;1.70;1.10;;;;;;;15.08;45.84;101401.95;106885;1253;24427;-47
2023/04/28 09:35:46;;;;;;;2.30;1.20;;;;;;;15.12;46.09;101405.82;106837;1275;25407;-47
2023/04/28 09:38:16;;;;;;;1.50;1.10;;;;;;;15.13;45.51;101399.67;106859;1275;24257;-48
2023/04/28 09:40:51;;;;;;;3.00;1.50;;;;;;;15.15;45.22;101403.46;106729;1272;22531;-48
2023/04/28 09:43:22;;;;;;;1.60;0.90;;;;;;;15.18;45.09;101401.79;106624;1275;24252;-49
2023/04/28 09:45:50;;;;;;;;;;;;;;;15.26;44.96;101401.56;106831;1269;22517;-47
2023/04/28 09:48:17;;;;;;;2.40;1.20;;;;;;;15.27;45.16;101400.66;106814;1269;24517;-48
2023/04/28 09:50:45;;;;;;;1.90;1.50;;;;;;;15.32;44.66;101396.65;106700;1275;25461;-48
2023/04/28 09:53:12;;;;;;;3.30;1.30;;;;;;;15.34;44.56;101396.42;106948;1269;22550;-49
2023/04/28 09:55:41;;;;;;;4.20;1.30;;;;;;;15.39;44.42;101402.89;106774;1270;24270;-46
2023/04/28 09:58:08;;;;;;;2.60;1.20;;;;;;;15.42;44.99;101398.79;106981;1270;22560;-47
2023/04/28 10:00:35;;;;;;;2.70;1.20;;;;;;;15.46;44.94;101402.20;106803;1270;22524;-47
2023/04/28 10:03:02;;;;;;;5.10;1.20;;;;;;;15.48;44.53;101406.34;106938;1273;24247;-47
2023/04/28 10:05:30;;;;;;;2.70;1.40;;;;;;;15.47;44.59;101399.19;107059;1268;22783;-48
2023/04/28 10:08:00;;;;;;;3.10;1.10;;;;;;;15.47;44.01;101410.36;106983;1270;22644;-47
2023/04/28 10:10:27;;;;;;;1.70;1.10;;;;;;;15.50;44.38;101407.65;106778;1269;22559;-48
2023/04/28 10:12:55;;;;;;;2.60;1.10;;;;;;;15.51;44.15;101410.59;106543;1272;24368;-47
2023/04/28 10:15:22;;;;;;;2.90;1.20;;;;;;;15.52;44.16;101405.13;106481;1263;24273;-48
2023/04/28 10:17:49;;;;;;;3.00;1.30;;;;;;;15.52;44.54;101409.34;106683;1272;24326;-48
2023/04/28 10:20:17;;;;;;;2.50;1.10;;;;;;;15.52;45.11;101411.63;106553;1270;22527;-48
2023/04/28 10:22:59;;;;;;;1.20;1.00;;;;;;;15.52;45.73;101420.71;106588;1270;22523;-47
2023/04/28 10:25:28;;;;;;;2.20;1.00;;;;;;;15.50;46.04;101416.77;106784;1269;24901;-47
2023/04/28 10:27:56;;;;;;;2.60;1.00;;;;;;;15.50;45.64;101416.23;106792;1269;22631;-47
2023/04/28 10:30:24;;;;;;;5.90;1.40;;;;;;;15.51;45.04;101414.98;106864;1272;22539;-49
2023/04/28 10:33:10;;;;;;;1.50;1.00;;;;;;;15.50;44.87;101419.17;106800;1274;22802;-47
2023/04/28 10:35:39;;;;;;;2.40;1.10;;;;;;;15.53;45.48;101414.20;106889;1269;22529;-48
2023/04/28 10:38:07;;;;;;;4.50;1.70;;;;;;;15.53;44.98;101407.73;106826;1269;24545;-48
2023/04/28 10:40:35;;;;;;;2.80;1.00;;;;;;;15.54;44.56;101413.48;106957;1272;22949;-48
2023/04/28 10:43:02;;;;;;;1.80;1.00;;;;;;;15.57;44.49;101414.58;106979;1273;25325;-48
2023/04/28 10:45:52;;;;;;;1.50;1.00;;;;;;;15.58;44.53;101411.25;106867;1271;22528;-48
2023/04/28 10:48:32;;;;;;;2.50;1.10;;;;;;;15.59;44.98;101403.16;106106;1271;1003666;-48
2023/04/28 10:51:03;;;;;;;2.40;1.00;;;;;;;15.58;44.43;101411.23;106910;1270;22526;-48
2023/04/28 10:53:49;;;;;;;1.70;1.10;;;;;;;15.55;44.39;101407.85;106795;1270;22528;-48
2023/04/28 10:56:25;;;;;;;2.70;1.20;;;;;;;15.53;45.15;101408.77;106853;1272;22526;-48
2023/04/28 10:58:56;;;;;;;1.80;0.90;;;;;;;15.54;45.56;101405.23;107081;1269;24358;-48
2023/04/28 11:01:28;;;;;;;2.40;1.30;;;;;;;15.54;45.41;101402.29;106946;1273;24259;-48
2023/04/28 11:04:03;;;;;;;2.20;1.10;;;;;;;15.54;44.84;101395.98;106849;1271;22520;-48
2023/04/28 11:06:33;;;;;;;3.50;1.20;;;;;;;15.55;44.45;101398.55;106882;1274;22544;-47
2023/04/28 11:09:02;;;;;;;2.80;1.10;;;;;;;15.54;44.50;101396.85;106962;1270;22562;-48
2023/04/28 11:11:37;;;;;;;3.20;1.30;;;;;;;15.52;44.89;101392.73;106981;1269;22530;-47
2023/04/28 11:14:17;;;;;;;2.40;1.10;;;;;;;15.51;45.17;101389.25;106908;1264;22628;-49
2023/04/28 11:16:58;;;;;;;2.40;1.40;;;;;;;15.53;45.28;101387.77;106802;1270;25567;-48
2023/04/28 11:19:30;;;;;;;2.20;0.80;;;;;;;15.54;45.16;101385.48;106825;1272;22523;-47
2023/04/28 11:21:58;;;;;;;1.50;0.90;;;;;;;15.57;45.45;101389.59;106898;1270;25360;-48
2023/04/28 11:24:27;;;;;;;2.00;1.10;;;;;;;15.57;45.28;101385.59;106891;1270;22550;-48